Nearby METAR Reports

METAR is the scheduled surface weather observation taken hourly at civil and military airport locations.

METAR is an acronym from the French language and roughly translates as Aviation Routine Weather Report.

 

EGPL - Benbecula Island, United Kingdom
Distance from station: WNW 41mi, 66km
Updated: 21/01/2020 00:20
Drizzle, Overcast
Drizzle, Overcast
 Wind from SW
Wind: SW 21 mph , 33 km/h
Temperature: 10°C
Wind Chill: 6°C
Dew Point: 9°C
Humidity: 94%
Barometer: 1035 hPa
Summary: Drizzle
Clouds: Overcast
Visibility: 2 miles , 3 km
Cloud details: Overcast 61 m
2020/01/21 00:20 EGPL 210020Z AUTO 23018KT 3400 DZ OVC002/// 10/09 Q1035
EGPU - Tiree Island, United Kingdom
Distance from station: SSW 56mi, 90km
Updated: 21/01/2020 00:20
Mist, Overcast
Mist, Overcast
 Wind from SW
Wind: SW 17 mph , 28 km/h
Temperature: 9°C
Wind Chill: 6°C
Dew Point: 9°C
Humidity: 100%
Barometer: 1037 hPa
Summary: Mist
Clouds: Overcast
Visibility: 1 mile , 2 km
Cloud details: Overcast 61 m
2020/01/21 00:20 EGPU 210020Z AUTO 23015KT 1700 BR OVC002/// 09/09 Q1037
 
EGEO - Oban Airport, United Kingdom
Distance from station: SE 65mi, 105km
Updated: 20/01/2020 15:50
NOT Current
Light drizzle, Overcast
Light drizzle, Overcast
 Wind from SW
Wind: SW 10 mph , 17 km/h
Temperature: 8°C
Wind Chill: 5°C
Dew Point: 7°C
Humidity: 93%
Barometer: 1041 hPa
Summary: Light Drizzle
Clouds: Overcast
Visibility: 2 miles , 4 km
Cloud details: Mostly cloudy 244 m
Overcast 610 m
2020/01/20 15:50 EGEO 201550Z 22009KT 190V250 4000 -DZ BKN008 OVC020 08/07 Q1041
EGPO - Stornoway, United Kingdom
Distance from station: 0 66mi, 106km
Updated: 21/01/2020 00:20
Overcast
Overcast
 Wind from WSW
Wind: WSW 16 mph , 26 km/h
Temperature: 10°C
Wind Chill: 7°C
Dew Point: 9°C
Humidity: 94%
Barometer: 1033 hPa
Clouds: Overcast
Visibility: 6 miles , 10 km
Cloud details: Overcast 152 m
2020/01/21 00:20 EGPO 210020Z AUTO 24014KT 9999 OVC005/// 10/09 Q1033
 
EGPE - Inverness/Dalcro, United Kingdom
Distance from station: ENE 88mi, 141km
Updated: 21/01/2020 00:20
Overcast
Overcast
 Wind from SW
Wind: SW 22 mph , 35 km/h
Temperature: 10°C
Wind Chill: 6°C
Dew Point: 7°C
Humidity: 82%
Barometer: 1033 hPa
Clouds: Overcast
Visibility: 6 miles , 10 km
Cloud details: Mostly cloudy 732 m
Overcast 1128 m
2020/01/21 00:20 EGPE 210020Z AUTO 22019KT 9999 BKN024/// OVC037/// 10/07 Q1033
EGQA - Tain Range (saws, United Kingdom
Distance from station: ENE 97mi, 156km
Updated: 20/01/2020 14:50
NOT Current
Few Clouds
Few Clouds
 Wind from S
Wind: S 25 mph , 41 km/h
Clouds: Few Clouds
Visibility: 6 miles , 10 km
Cloud details: Few Clouds 914 m
2020/01/20 14:50 EGQA 201450Z 19022KT 9999 FEW030 09/// Q1034 RMK BLU
 
EGQK - Kinloss Raf, United Kingdom
Distance from station: ENE 107mi, 171km
Updated: 20/01/2020 23:50
Few Clouds
Few Clouds
 Wind from WSW
Wind: WSW 20 mph , 31 km/h
Temperature: 10°C
Wind Chill: 7°C
Dew Point: 7°C
Humidity: 82%
Barometer: 1033 hPa
Clouds: Few Clouds
Visibility: 6 miles , 10 km
Cloud details: Few Clouds 823 m
2020/01/20 23:50 EGQK 202350Z AUTO 24017KT 9999 FEW027/// 10/07 Q1033
EGPI - Islay/Port Ellen, United Kingdom
Distance from station: S 110mi, 177km
Updated: 21/01/2020 00:20
Mostly cloudy
Mostly cloudy
 Wind from SW
Wind: SW 10 mph , 17 km/h
Temperature: 9°C
Wind Chill: 7°C
Dew Point: 7°C
Humidity: 87%
Barometer: 1040 hPa
Clouds: Mostly cloudy
Visibility: 6 miles , 10 km
Cloud details: Mostly cloudy 549 m
2020/01/21 00:20 EGPI 210020Z 23009KT 9999 BKN018 09/07 Q1040
 
EGQS - Lossiemouth Raf, United Kingdom
Distance from station: ENE 117mi, 188km
Updated: 20/01/2020 23:50
Mostly cloudy
Mostly cloudy
 Wind from WSW
Wind: WSW 23 mph , 37 km/h
Temperature: 10°C
Wind Chill: 6°C
Dew Point: 6°C
Humidity: 76%
Barometer: 1033 hPa
Clouds: Mostly cloudy
Visibility: 6 miles , 10 km
Cloud details: Few Clouds 914 m
Mostly cloudy 7620 m
2020/01/20 23:50 EGQS 202350Z 24020KT 9999 FEW030 BKN250 10/06 Q1033 RMK BLU
EGPF - Glasgow Airport, United Kingdom
Distance from station: SE 121mi, 195km
Updated: 21/01/2020 00:20
Overcast
Overcast
 Wind from SW
Wind: SW 12 mph , 19 km/h
Temperature: 8°C
Wind Chill: 4°C
Dew Point: 6°C
Humidity: 87%
Barometer: 1040 hPa
Clouds: Overcast
Visibility: 6 miles , 10 km
Cloud details: Overcast 488 m
2020/01/21 00:20 EGPF 210020Z AUTO 23010KT 9999 OVC016 08/06 Q1040
 
EGEC - Campbeltown, United Kingdom
Distance from station: SSE 129mi, 207km
Updated: 20/01/2020 16:50
NOT Current
Overcast
Overcast
 Wind from SW
Wind: SW 15 mph , 24 km/h
Temperature: 8°C
Wind Chill: 4°C
Dew Point: 5°C
Humidity: 82%
Barometer: 1042 hPa
Clouds: Overcast
Visibility: 6 miles , 10 km
Cloud details: Overcast 853 m
2020/01/20 16:50 EGEC 201650Z 23013KT 9999 OVC028 08/05 Q1042
EGPN - Dundee/Riverside, United Kingdom
Distance from station: ESE 137mi, 221km
Updated: 20/01/2020 20:20
NOT Current
Few Clouds
Few Clouds
 Wind from W
Wind: W 14 mph , 22 km/h
Temperature: 7°C
Wind Chill: 4°C
Dew Point: 5°C
Humidity: 87%
Barometer: 1038 hPa
Clouds: Few Clouds
Visibility: 6 miles , 10 km
Cloud details: Few Clouds 914 m
2020/01/20 20:20 EGPN 202020Z 27012KT 9999 FEW030 07/05 Q1038
 
EGPK - Prestwick(Civ/Na, United Kingdom
Distance from station: SSE 139mi, 224km
Updated: 20/01/2020 23:50

 Wind from SW
Wind: SW 14 mph , 22 km/h
Visibility: 6 miles , 10 km
2020/01/20 23:50 EGPK 202350Z 22012KT 9999 BKN 022 09/05 Q1041
EGQL - Leuchars Raf, United Kingdom
Distance from station: ESE 145mi, 233km
Updated: 20/01/2020 23:50
Clear
Clear
 Wind from WSW
Wind: WSW 15 mph , 24 km/h
Temperature: 7°C
Wind Chill: 3°C
Dew Point: 5°C
Humidity: 87%
Barometer: 1037 hPa
Summary: Clear
Visibility: greater than 7 miles , 10 km
2020/01/20 23:50 EGQL 202350Z 24013KT CAVOK 07/05 Q1037 BLU
 
EGPH - Edinburgh Airpor, United Kingdom
Distance from station: SE 145mi, 234km
Updated: 21/01/2020 00:20
Overcast
Overcast
 Wind from WSW
Wind: WSW 14 mph , 22 km/h
Temperature: 8°C
Wind Chill: 4°C
Dew Point: 6°C
Humidity: 87%
Barometer: 1039 hPa
Clouds: Overcast
Visibility: 6 miles , 10 km
Cloud details: Overcast 518 m
2020/01/21 00:20 EGPH 210020Z 24012KT 9999 OVC017 08/06 Q1039
EGPC - Wick, United Kingdom
Distance from station: NE 146mi, 234km
Updated: 21/01/2020 00:20
Overcast
Overcast
 Wind from W
Wind: W 17 mph , 28 km/h
Temperature: 11°C
Dew Point: 8°C
Humidity: 82%
Barometer: 1031 hPa
Clouds: Overcast
Visibility: 6 miles , 10 km
Cloud details: Mostly cloudy 853 m
Overcast 1128 m
2020/01/21 00:20 EGPC 210020Z AUTO 26015KT 9999 BKN028/// OVC037/// 11/08 Q1031

-

free counters
QR Code Twitter Scottish Weather Network UK Weather Network
Argyll House B & B

Argyll House B & B is situated in North West Skye and is the perfect base to see all that the Isle of Skye has to offer. Bookings are been taken for 2020 and 2021